Pomona, Illinois
Current Conditions -  °F | °C
As of 9:52 AM on Friday 21 Nov 2014 (Local Time) from KMDH Reporting Station
Clear Clear  
Wind Chill: 27°   Ceiling: Unl
Heat Index: 35°   Visibility: 10mi
Dew Point: 20°   Wind: 10mph
Humidity: 54%   Direction: 120°ESE
Pressure: 30.46"   Gusts: NA
Location:  37.63°N, 89.34°W
Report Text: KMDH 211552Z 12009KT 10SM CLR 02/M07 A3046 RMK AO2 SLP318 T00171067
Loading
Personal Weather Stations






























Interactive Weather Map New forecast layout! Learn more

10-Day Weather Forecast

Advertisements
Track Severe Weather on mobile